sensor_id;sensor_type;location;lat;lon;timestamp;pressure;altitude;pressure_sealevel;temperature;humidity
48555;BME280;34336;48.270;16.716;2023-03-23T00:01:45;109325.25;;;18.16;70.79
48555;BME280;34336;48.270;16.716;2023-03-23T00:04:11;109325.25;;;18.16;70.74
48555;BME280;34336;48.270;16.716;2023-03-23T00:06:38;109325.25;;;18.16;70.56
48555;BME280;34336;48.270;16.716;2023-03-23T00:09:04;109325.25;;;18.16;71.22
48555;BME280;34336;48.270;16.716;2023-03-23T00:11:31;109325.25;;;18.16;71.79
48555;BME280;34336;48.270;16.716;2023-03-23T00:13:57;109325.25;;;18.16;71.94
48555;BME280;34336;48.270;16.716;2023-03-23T00:16:26;109325.25;;;18.16;72.51
48555;BME280;34336;48.270;16.716;2023-03-23T00:19:01;109325.25;;;18.16;72.59
48555;BME280;34336;48.270;16.716;2023-03-23T00:21:28;109325.25;;;18.16;73.61
48555;BME280;34336;48.270;16.716;2023-03-23T00:23:59;109325.25;;;18.16;73.22
48555;BME280;34336;48.270;16.716;2023-03-23T00:26:24;109325.25;;;18.16;73.29
48555;BME280;34336;48.270;16.716;2023-03-23T00:28:53;109325.25;;;18.16;73.81
48555;BME280;34336;48.270;16.716;2023-03-23T00:31:19;109325.25;;;18.16;74.18
48555;BME280;34336;48.270;16.716;2023-03-23T00:33:44;109325.25;;;18.16;75.26
48555;BME280;34336;48.270;16.716;2023-03-23T00:36:11;109325.25;;;18.16;75.66
48555;BME280;34336;48.270;16.716;2023-03-23T00:38:37;109325.25;;;18.16;76.26
48555;BME280;34336;48.270;16.716;2023-03-23T00:41:03;109325.25;;;18.16;76.11
48555;BME280;34336;48.270;16.716;2023-03-23T00:43:29;109325.25;;;18.16;76.01
48555;BME280;34336;48.270;16.716;2023-03-23T00:45:55;109325.25;;;18.16;75.47
48555;BME280;34336;48.270;16.716;2023-03-23T00:48:22;109325.25;;;18.16;75.10
48555;BME280;34336;48.270;16.716;2023-03-23T00:50:48;109325.25;;;18.16;74.90
48555;BME280;34336;48.270;16.716;2023-03-23T00:53:14;109325.25;;;18.16;74.91
48555;BME280;34336;48.270;16.716;2023-03-23T00:55:44;109325.25;;;18.16;74.19
48555;BME280;34336;48.270;16.716;2023-03-23T00:58:10;109325.25;;;18.16;74.22
48555;BME280;34336;48.270;16.716;2023-03-23T01:00:37;109325.25;;;18.16;73.88
48555;BME280;34336;48.270;16.716;2023-03-23T01:03:04;109325.25;;;18.16;73.62
48555;BME280;34336;48.270;16.716;2023-03-23T01:05:29;109325.25;;;18.16;73.49
48555;BME280;34336;48.270;16.716;2023-03-23T01:07:58;109325.25;;;18.16;73.28
48555;BME280;34336;48.270;16.716;2023-03-23T01:10:24;109325.25;;;18.16;73.12
48555;BME280;34336;48.270;16.716;2023-03-23T01:12:51;109325.25;;;18.16;73.32
48555;BME280;34336;48.270;16.716;2023-03-23T01:15:17;109325.25;;;18.16;73.05
48555;BME280;34336;48.270;16.716;2023-03-23T01:17:43;109325.25;;;18.16;73.04
48555;BME280;34336;48.270;16.716;2023-03-23T01:20:09;109325.25;;;18.16;73.47
48555;BME280;34336;48.270;16.716;2023-03-23T01:22:36;109325.25;;;18.16;73.77
48555;BME280;34336;48.270;16.716;2023-03-23T01:25:02;109325.25;;;18.16;73.59
48555;BME280;34336;48.270;16.716;2023-03-23T01:27:27;109325.25;;;18.16;74.10
48555;BME280;34336;48.270;16.716;2023-03-23T01:29:53;109325.25;;;18.16;73.85
48555;BME280;34336;48.270;16.716;2023-03-23T01:32:18;109325.25;;;18.16;73.86
48555;BME280;34336;48.270;16.716;2023-03-23T01:34:44;109325.25;;;18.16;74.49
48555;BME280;34336;48.270;16.716;2023-03-23T01:37:09;109325.25;;;18.16;74.22
48555;BME280;34336;48.270;16.716;2023-03-23T01:39:38;109325.25;;;18.16;74.62
48555;BME280;34336;48.270;16.716;2023-03-23T01:42:03;109325.25;;;18.16;74.87
48555;BME280;34336;48.270;16.716;2023-03-23T01:47:00;109325.25;;;18.16;75.11
48555;BME280;34336;48.270;16.716;2023-03-23T01:49:36;109325.25;;;18.16;73.88
48555;BME280;34336;48.270;16.716;2023-03-23T01:52:04;109325.25;;;18.16;74.49
48555;BME280;34336;48.270;16.716;2023-03-23T01:54:34;109325.25;;;18.16;74.36
48555;BME280;34336;48.270;16.716;2023-03-23T01:57:04;109325.25;;;18.16;74.58
48555;BME280;34336;48.270;16.716;2023-03-23T01:59:32;109325.25;;;18.16;75.23
48555;BME280;34336;48.270;16.716;2023-03-23T02:02:20;109325.25;;;18.16;75.17
48555;BME280;34336;48.270;16.716;2023-03-23T02:04:47;109325.25;;;18.16;75.33
48555;BME280;34336;48.270;16.716;2023-03-23T02:07:14;109325.25;;;18.16;74.86
48555;BME280;34336;48.270;16.716;2023-03-23T02:09:40;109325.25;;;18.16;75.38
48555;BME280;34336;48.270;16.716;2023-03-23T02:12:06;109325.25;;;18.16;75.23
48555;BME280;34336;48.270;16.716;2023-03-23T02:14:34;109325.25;;;18.16;75.63
48555;BME280;34336;48.270;16.716;2023-03-23T02:31:56;109325.25;;;18.16;76.34
48555;BME280;34336;48.270;16.716;2023-03-23T02:37:36;109325.25;;;18.16;75.73
48555;BME280;34336;48.270;16.716;2023-03-23T02:40:06;109325.25;;;18.16;75.96
48555;BME280;34336;48.270;16.716;2023-03-23T02:42:36;109325.25;;;18.16;76.06
48555;BME280;34336;48.270;16.716;2023-03-23T02:45:03;109325.25;;;18.16;76.20
48555;BME280;34336;48.270;16.716;2023-03-23T02:47:31;109325.25;;;18.16;76.53
48555;BME280;34336;48.270;16.716;2023-03-23T02:49:58;109325.25;;;18.16;76.70
48555;BME280;34336;48.270;16.716;2023-03-23T02:52:29;109325.25;;;18.16;76.69
48555;BME280;34336;48.270;16.716;2023-03-23T02:54:56;109325.25;;;18.16;76.65
48555;BME280;34336;48.270;16.716;2023-03-23T02:57:23;109325.25;;;18.16;77.80
48555;BME280;34336;48.270;16.716;2023-03-23T02:59:52;109325.25;;;18.16;76.89
48555;BME280;34336;48.270;16.716;2023-03-23T03:02:22;109325.25;;;18.16;76.39
48555;BME280;34336;48.270;16.716;2023-03-23T03:04:52;109325.25;;;18.16;76.28
48555;BME280;34336;48.270;16.716;2023-03-23T03:07:35;109325.25;;;18.16;77.02
48555;BME280;34336;48.270;16.716;2023-03-23T03:12:50;109325.25;;;18.16;77.79
48555;BME280;34336;48.270;16.716;2023-03-23T03:17:46;109325.25;;;18.16;78.00
48555;BME280;34336;48.270;16.716;2023-03-23T03:20:14;109325.25;;;18.16;78.56
48555;BME280;34336;48.270;16.716;2023-03-23T03:22:41;109325.25;;;18.16;78.14
48555;BME280;34336;48.270;16.716;2023-03-23T03:25:09;109325.25;;;18.16;77.91
48555;BME280;34336;48.270;16.716;2023-03-23T03:27:38;109325.25;;;18.16;77.77
48555;BME280;34336;48.270;16.716;2023-03-23T03:30:13;109325.25;;;18.16;78.80
48555;BME280;34336;48.270;16.716;2023-03-23T03:32:44;109325.25;;;18.16;78.74
48555;BME280;34336;48.270;16.716;2023-03-23T03:35:12;109325.25;;;18.16;79.05
48555;BME280;34336;48.270;16.716;2023-03-23T03:37:39;109325.25;;;18.16;78.29
48555;BME280;34336;48.270;16.716;2023-03-23T03:40:09;109325.25;;;18.16;77.62
48555;BME280;34336;48.270;16.716;2023-03-23T03:42:38;109325.25;;;18.16;77.14
48555;BME280;34336;48.270;16.716;2023-03-23T03:45:04;109325.25;;;18.16;77.39
48555;BME280;34336;48.270;16.716;2023-03-23T03:47:30;109325.25;;;18.16;78.11
48555;BME280;34336;48.270;16.716;2023-03-23T03:49:56;109325.25;;;18.16;77.58
48555;BME280;34336;48.270;16.716;2023-03-23T03:52:23;109325.25;;;18.16;77.07
48555;BME280;34336;48.270;16.716;2023-03-23T03:54:48;109325.25;;;18.16;77.19
48555;BME280;34336;48.270;16.716;2023-03-23T03:57:14;109325.25;;;18.16;78.24
48555;BME280;34336;48.270;16.716;2023-03-23T03:59:58;109325.25;;;18.16;79.11
48555;BME280;34336;48.270;16.716;2023-03-23T04:02:44;109325.25;;;18.16;78.87
48555;BME280;34336;48.270;16.716;2023-03-23T04:05:14;109325.25;;;18.16;79.58
48555;BME280;34336;48.270;16.716;2023-03-23T04:07:42;109325.25;;;18.16;79.67
48555;BME280;34336;48.270;16.716;2023-03-23T04:10:08;109325.25;;;18.16;79.70
48555;BME280;34336;48.270;16.716;2023-03-23T04:12:35;109325.25;;;18.16;79.56
48555;BME280;34336;48.270;16.716;2023-03-23T04:15:20;109325.25;;;18.16;79.87
48555;BME280;34336;48.270;16.716;2023-03-23T04:17:47;109325.25;;;18.16;80.73
48555;BME280;34336;48.270;16.716;2023-03-23T04:20:12;109325.25;;;18.16;80.97
48555;BME280;34336;48.270;16.716;2023-03-23T04:22:47;109325.25;;;18.16;81.01
48555;BME280;34336;48.270;16.716;2023-03-23T04:25:15;109325.25;;;18.16;81.36
48555;BME280;34336;48.270;16.716;2023-03-23T04:27:42;109325.25;;;18.16;81.73
48555;BME280;34336;48.270;16.716;2023-03-23T04:30:10;109325.25;;;18.16;82.18
48555;BME280;34336;48.270;16.716;2023-03-23T04:32:45;109325.25;;;18.16;82.02
48555;BME280;34336;48.270;16.716;2023-03-23T04:35:16;109325.25;;;18.16;80.75
48555;BME280;34336;48.270;16.716;2023-03-23T04:37:48;109325.25;;;18.16;80.06
48555;BME280;34336;48.270;16.716;2023-03-23T04:40:18;109325.25;;;18.16;79.84
48555;BME280;34336;48.270;16.716;2023-03-23T04:42:53;109325.25;;;18.16;80.90
48555;BME280;34336;48.270;16.716;2023-03-23T04:45:41;109325.25;;;18.16;81.52
48555;BME280;34336;48.270;16.716;2023-03-23T04:48:12;109325.25;;;18.16;82.23
48555;BME280;34336;48.270;16.716;2023-03-23T04:50:49;109325.25;;;18.16;82.44
48555;BME280;34336;48.270;16.716;2023-03-23T04:53:22;109325.25;;;18.16;82.98
48555;BME280;34336;48.270;16.716;2023-03-23T04:55:47;109325.25;;;18.16;83.05
48555;BME280;34336;48.270;16.716;2023-03-23T04:58:15;109325.25;;;18.16;82.85
48555;BME280;34336;48.270;16.716;2023-03-23T05:00:51;109325.25;;;18.16;83.16
48555;BME280;34336;48.270;16.716;2023-03-23T05:03:19;109325.25;;;18.16;82.63
48555;BME280;34336;48.270;16.716;2023-03-23T05:05:45;109325.25;;;18.16;82.23
48555;BME280;34336;48.270;16.716;2023-03-23T05:08:13;109325.25;;;18.16;81.11
48555;BME280;34336;48.270;16.716;2023-03-23T05:10:40;109325.25;;;18.16;80.78
48555;BME280;34336;48.270;16.716;2023-03-23T05:13:11;109325.25;;;18.16;79.65
48555;BME280;34336;48.270;16.716;2023-03-23T05:15:36;109325.25;;;18.16;78.02
48555;BME280;34336;48.270;16.716;2023-03-23T05:18:03;109325.25;;;18.16;73.32
48555;BME280;34336;48.270;16.716;2023-03-23T05:20:30;109325.25;;;18.16;63.98
48555;BME280;34336;48.270;16.716;2023-03-23T05:23:03;109325.25;;;18.16;61.05
48555;BME280;34336;48.270;16.716;2023-03-23T05:25:33;109325.25;;;18.16;59.71
48555;BME280;34336;48.270;16.716;2023-03-23T05:28:08;109325.25;;;18.16;61.10
48555;BME280;34336;48.270;16.716;2023-03-23T05:30:51;109325.25;;;18.16;61.16
48555;BME280;34336;48.270;16.716;2023-03-23T05:33:18;109325.25;;;18.16;62.32
48555;BME280;34336;48.270;16.716;2023-03-23T05:35:51;109325.25;;;18.16;62.58
48555;BME280;34336;48.270;16.716;2023-03-23T05:38:23;109325.25;;;18.16;63.35
48555;BME280;34336;48.270;16.716;2023-03-23T05:40:50;109325.25;;;18.16;64.68
48555;BME280;34336;48.270;16.716;2023-03-23T05:43:24;109325.25;;;18.16;65.57
48555;BME280;34336;48.270;16.716;2023-03-23T05:46:04;109325.25;;;18.16;65.59
48555;BME280;34336;48.270;16.716;2023-03-23T05:48:30;109325.25;;;18.16;64.99
48555;BME280;34336;48.270;16.716;2023-03-23T05:50:57;109325.25;;;18.16;65.22
48555;BME280;34336;48.270;16.716;2023-03-23T05:53:24;109325.25;;;18.16;64.62
48555;BME280;34336;48.270;16.716;2023-03-23T05:55:50;109325.25;;;18.16;63.75
48555;BME280;34336;48.270;16.716;2023-03-23T05:58:26;109325.25;;;18.16;64.00
48555;BME280;34336;48.270;16.716;2023-03-23T06:00:52;109325.25;;;18.16;63.19
48555;BME280;34336;48.270;16.716;2023-03-23T06:03:25;109325.25;;;18.16;61.77
48555;BME280;34336;48.270;16.716;2023-03-23T06:06:00;109325.25;;;18.16;58.94
48555;BME280;34336;48.270;16.716;2023-03-23T06:08:33;109325.25;;;18.16;58.38
48555;BME280;34336;48.270;16.716;2023-03-23T06:10:58;109325.25;;;18.16;59.55
48555;BME280;34336;48.270;16.716;2023-03-23T06:13:26;109325.25;;;18.16;56.77
48555;BME280;34336;48.270;16.716;2023-03-23T06:15:55;109325.25;;;18.16;59.32
48555;BME280;34336;48.270;16.716;2023-03-23T06:18:45;109325.25;;;18.16;59.88
48555;BME280;34336;48.270;16.716;2023-03-23T06:21:32;109325.25;;;18.16;59.43
48555;BME280;34336;48.270;16.716;2023-03-23T06:24:17;109325.25;;;18.16;59.37
48555;BME280;34336;48.270;16.716;2023-03-23T06:26:42;109325.25;;;18.16;58.89
48555;BME280;34336;48.270;16.716;2023-03-23T06:29:14;109325.25;;;18.16;57.28
48555;BME280;34336;48.270;16.716;2023-03-23T06:31:44;109325.25;;;18.16;57.47
48555;BME280;34336;48.270;16.716;2023-03-23T06:34:12;109325.25;;;18.16;56.36
48555;BME280;34336;48.270;16.716;2023-03-23T06:36:56;109325.25;;;18.16;55.00
48555;BME280;34336;48.270;16.716;2023-03-23T06:39:35;109325.25;;;18.16;55.12
48555;BME280;34336;48.270;16.716;2023-03-23T06:42:22;109325.25;;;18.16;55.26
48555;BME280;34336;48.270;16.716;2023-03-23T06:45:01;109325.25;;;18.16;56.06
48555;BME280;34336;48.270;16.716;2023-03-23T06:47:28;109325.25;;;18.16;55.93
48555;BME280;34336;48.270;16.716;2023-03-23T06:49:57;109325.25;;;18.16;56.05
48555;BME280;34336;48.270;16.716;2023-03-23T06:52:25;109325.25;;;18.16;56.36
48555;BME280;34336;48.270;16.716;2023-03-23T06:54:52;109325.25;;;18.16;55.16
48555;BME280;34336;48.270;16.716;2023-03-23T06:57:19;109325.25;;;18.16;53.34
48555;BME280;34336;48.270;16.716;2023-03-23T06:59:46;109325.25;;;18.16;51.03
48555;BME280;34336;48.270;16.716;2023-03-23T07:02:13;109325.25;;;18.16;47.11
48555;BME280;34336;48.270;16.716;2023-03-23T07:04:44;109325.25;;;18.16;47.14
48555;BME280;34336;48.270;16.716;2023-03-23T07:07:20;109325.25;;;18.16;47.32
48555;BME280;34336;48.270;16.716;2023-03-23T07:09:53;109325.25;;;18.16;48.13
48555;BME280;34336;48.270;16.716;2023-03-23T07:12:22;109325.25;;;18.16;49.38
48555;BME280;34336;48.270;16.716;2023-03-23T07:14:49;109325.25;;;18.16;49.97
48555;BME280;34336;48.270;16.716;2023-03-23T07:17:15;109325.25;;;18.16;50.05
48555;BME280;34336;48.270;16.716;2023-03-23T07:19:54;109325.25;;;18.16;50.77
48555;BME280;34336;48.270;16.716;2023-03-23T07:22:20;109325.25;;;18.16;51.33
48555;BME280;34336;48.270;16.716;2023-03-23T07:24:54;109325.25;;;18.16;52.23
48555;BME280;34336;48.270;16.716;2023-03-23T07:27:27;109325.25;;;18.16;52.95
48555;BME280;34336;48.270;16.716;2023-03-23T07:29:56;109325.25;;;18.16;53.29
48555;BME280;34336;48.270;16.716;2023-03-23T07:32:25;109325.25;;;18.16;53.17
48555;BME280;34336;48.270;16.716;2023-03-23T07:34:50;109325.25;;;18.16;53.55
48555;BME280;34336;48.270;16.716;2023-03-23T07:37:26;109325.25;;;18.16;54.06
48555;BME280;34336;48.270;16.716;2023-03-23T07:39:53;109325.25;;;18.16;54.60
48555;BME280;34336;48.270;16.716;2023-03-23T07:42:19;109325.25;;;18.16;53.58
48555;BME280;34336;48.270;16.716;2023-03-23T07:44:54;109325.25;;;18.16;54.09
48555;BME280;34336;48.270;16.716;2023-03-23T07:47:20;109325.25;;;18.16;54.57
48555;BME280;34336;48.270;16.716;2023-03-23T07:49:48;109325.25;;;18.16;54.26
48555;BME280;34336;48.270;16.716;2023-03-23T07:52:23;109325.25;;;18.16;55.52
48555;BME280;34336;48.270;16.716;2023-03-23T07:54:50;109325.25;;;18.16;55.43
48555;BME280;34336;48.270;16.716;2023-03-23T07:57:38;109325.25;;;18.16;54.72
48555;BME280;34336;48.270;16.716;2023-03-23T08:00:05;109325.25;;;18.16;55.21
48555;BME280;34336;48.270;16.716;2023-03-23T08:02:45;109325.25;;;18.16;55.44
48555;BME280;34336;48.270;16.716;2023-03-23T08:05:25;109325.25;;;18.16;53.47
48555;BME280;34336;48.270;16.716;2023-03-23T08:08:09;109325.25;;;18.16;53.38
48555;BME280;34336;48.270;16.716;2023-03-23T08:10:55;109325.25;;;18.16;53.70
48555;BME280;34336;48.270;16.716;2023-03-23T08:13:43;109325.25;;;18.16;52.19
48555;BME280;34336;48.270;16.716;2023-03-23T08:16:09;109325.25;;;18.16;50.90
48555;BME280;34336;48.270;16.716;2023-03-23T08:18:53;109325.25;;;18.16;50.64
48555;BME280;34336;48.270;16.716;2023-03-23T08:21:34;109325.25;;;18.16;51.63
48555;BME280;34336;48.270;16.716;2023-03-23T08:24:03;109325.25;;;18.16;52.59
48555;BME280;34336;48.270;16.716;2023-03-23T08:26:46;109325.25;;;18.16;52.39
48555;BME280;34336;48.270;16.716;2023-03-23T08:29:37;109325.25;;;18.16;51.73
48555;BME280;34336;48.270;16.716;2023-03-23T08:32:22;109325.25;;;18.16;52.33
48555;BME280;34336;48.270;16.716;2023-03-23T08:35:15;109325.25;;;18.16;53.08
48555;BME280;34336;48.270;16.716;2023-03-23T08:37:43;109325.25;;;18.16;52.36
48555;BME280;34336;48.270;16.716;2023-03-23T08:40:32;109325.25;;;18.16;52.12
48555;BME280;34336;48.270;16.716;2023-03-23T08:43:23;109325.25;;;18.16;52.53
48555;BME280;34336;48.270;16.716;2023-03-23T08:46:21;109325.25;;;18.16;51.28
48555;BME280;34336;48.270;16.716;2023-03-23T08:49:08;109325.25;;;18.16;50.72
48555;BME280;34336;48.270;16.716;2023-03-23T08:52:04;109325.25;;;18.16;49.51
48555;BME280;34336;48.270;16.716;2023-03-23T08:54:51;109325.25;;;18.16;47.01
48555;BME280;34336;48.270;16.716;2023-03-23T08:57:26;109325.25;;;18.16;46.73
48555;BME280;34336;48.270;16.716;2023-03-23T09:00:07;109325.25;;;18.16;46.18
48555;BME280;34336;48.270;16.716;2023-03-23T09:03:06;109325.25;;;18.16;45.89
48555;BME280;34336;48.270;16.716;2023-03-23T09:05:41;109325.25;;;18.16;47.28
48555;BME280;34336;48.270;16.716;2023-03-23T09:08:37;109325.25;;;18.16;47.34
48555;BME280;34336;48.270;16.716;2023-03-23T09:11:03;109325.25;;;18.16;47.50
48555;BME280;34336;48.270;16.716;2023-03-23T09:13:29;109325.25;;;18.16;48.24
48555;BME280;34336;48.270;16.716;2023-03-23T09:15:55;109325.25;;;18.16;47.32
48555;BME280;34336;48.270;16.716;2023-03-23T09:18:20;109325.25;;;18.16;46.17
48555;BME280;34336;48.270;16.716;2023-03-23T09:24:27;109325.25;;;18.16;46.14
48555;BME280;34336;48.270;16.716;2023-03-23T09:26:53;109325.25;;;18.16;45.58
48555;BME280;34336;48.270;16.716;2023-03-23T09:29:18;109325.25;;;18.16;47.62
48555;BME280;34336;48.270;16.716;2023-03-23T09:31:46;109325.25;;;18.16;46.39
48555;BME280;34336;48.270;16.716;2023-03-23T09:34:12;109325.25;;;18.16;48.02
48555;BME280;34336;48.270;16.716;2023-03-23T09:36:41;109325.25;;;18.16;46.92
48555;BME280;34336;48.270;16.716;2023-03-23T09:39:06;109325.25;;;18.16;48.58
48555;BME280;34336;48.270;16.716;2023-03-23T09:49:15;109325.25;;;18.16;45.18
48555;BME280;34336;48.270;16.716;2023-03-23T09:54:35;109325.25;;;18.16;45.57
48555;BME280;34336;48.270;16.716;2023-03-23T09:57:01;109325.25;;;18.16;45.09
48555;BME280;34336;48.270;16.716;2023-03-23T09:59:34;109325.25;;;18.16;44.52
48555;BME280;34336;48.270;16.716;2023-03-23T10:04:37;109325.25;;;18.16;46.29
48555;BME280;34336;48.270;16.716;2023-03-23T10:07:17;109325.25;;;18.16;44.53
48555;BME280;34336;48.270;16.716;2023-03-23T10:09:44;109325.25;;;18.16;45.76
48555;BME280;34336;48.270;16.716;2023-03-23T10:12:21;109325.25;;;18.16;44.24
48555;BME280;34336;48.270;16.716;2023-03-23T10:15:10;109325.25;;;18.16;46.97
48555;BME280;34336;48.270;16.716;2023-03-23T10:22:42;109325.25;;;18.16;45.31
48555;BME280;34336;48.270;16.716;2023-03-23T10:28:21;109325.25;;;18.16;45.07
48555;BME280;34336;48.270;16.716;2023-03-23T10:30:33;109325.25;;;18.16;44.77
48555;BME280;34336;48.270;16.716;2023-03-23T10:33:18;109325.25;;;18.16;44.04
48555;BME280;34336;48.270;16.716;2023-03-23T10:36:00;109325.25;;;18.16;43.90
48555;BME280;34336;48.270;16.716;2023-03-23T10:38:33;109325.25;;;18.16;43.93
48555;BME280;34336;48.270;16.716;2023-03-23T10:41:01;109325.25;;;18.16;43.57
48555;BME280;34336;48.270;16.716;2023-03-23T10:43:28;109325.25;;;18.16;44.33
48555;BME280;34336;48.270;16.716;2023-03-23T10:45:58;109325.25;;;18.16;44.23
48555;BME280;34336;48.270;16.716;2023-03-23T10:48:28;109325.25;;;18.16;42.31
48555;BME280;34336;48.270;16.716;2023-03-23T10:50:57;109325.25;;;18.16;43.19
48555;BME280;34336;48.270;16.716;2023-03-23T10:55:56;109325.25;;;18.16;43.43
48555;BME280;34336;48.270;16.716;2023-03-23T10:58:25;109325.25;;;18.16;45.01
48555;BME280;34336;48.270;16.716;2023-03-23T11:00:53;109325.25;;;18.16;43.26
48555;BME280;34336;48.270;16.716;2023-03-23T11:05:49;109325.25;;;18.16;41.66
48555;BME280;34336;48.270;16.716;2023-03-23T11:08:16;109325.25;;;18.16;45.08
48555;BME280;34336;48.270;16.716;2023-03-23T11:10:51;109325.25;;;18.16;43.98
48555;BME280;34336;48.270;16.716;2023-03-23T11:13:18;109325.25;;;18.16;44.23
48555;BME280;34336;48.270;16.716;2023-03-23T11:15:45;109325.25;;;18.16;44.24
48555;BME280;34336;48.270;16.716;2023-03-23T11:18:47;109325.25;;;18.16;43.28
48555;BME280;34336;48.270;16.716;2023-03-23T11:21:06;109325.25;;;18.16;44.62
48555;BME280;34336;48.270;16.716;2023-03-23T11:23:33;109325.25;;;18.16;43.78
48555;BME280;34336;48.270;16.716;2023-03-23T11:26:10;109325.25;;;18.16;42.22
48555;BME280;34336;48.270;16.716;2023-03-23T11:28:38;109325.25;;;18.16;42.85
48555;BME280;34336;48.270;16.716;2023-03-23T11:31:07;109325.25;;;18.16;44.80
48555;BME280;34336;48.270;16.716;2023-03-23T11:33:37;109325.25;;;18.16;42.83
48555;BME280;34336;48.270;16.716;2023-03-23T11:36:04;109325.25;;;18.16;42.59
48555;BME280;34336;48.270;16.716;2023-03-23T11:38:31;109325.25;;;18.16;43.17
48555;BME280;34336;48.270;16.716;2023-03-23T11:40:58;109325.25;;;18.16;41.74
48555;BME280;34336;48.270;16.716;2023-03-23T11:43:24;109325.25;;;18.16;42.29
48555;BME280;34336;48.270;16.716;2023-03-23T11:45:58;109325.25;;;18.16;41.88
48555;BME280;34336;48.270;16.716;2023-03-23T11:48:31;109325.25;;;18.16;42.17
48555;BME280;34336;48.270;16.716;2023-03-23T11:51:01;109325.25;;;18.16;42.52
48555;BME280;34336;48.270;16.716;2023-03-23T11:58:22;109325.25;;;18.16;42.25
48555;BME280;34336;48.270;16.716;2023-03-23T12:00:58;109325.25;;;18.16;42.65
48555;BME280;34336;48.270;16.716;2023-03-23T12:40:23;109325.25;;;18.16;43.09
48555;BME280;34336;48.270;16.716;2023-03-23T12:42:56;109325.25;;;18.16;43.12
48555;BME280;34336;48.270;16.716;2023-03-23T12:47:56;109325.25;;;18.16;42.59
48555;BME280;34336;48.270;16.716;2023-03-23T12:50:39;109325.25;;;18.16;42.43
48555;BME280;34336;48.270;16.716;2023-03-23T12:56:16;109325.25;;;18.16;42.25
48555;BME280;34336;48.270;16.716;2023-03-23T12:58:47;109325.25;;;18.16;43.56
48555;BME280;34336;48.270;16.716;2023-03-23T13:01:24;109325.25;;;18.16;42.79
48555;BME280;34336;48.270;16.716;2023-03-23T13:06:36;109325.25;;;18.16;43.54
48555;BME280;34336;48.270;16.716;2023-03-23T13:09:14;109325.25;;;18.16;43.59
48555;BME280;34336;48.270;16.716;2023-03-23T13:11:42;109325.25;;;18.16;42.37
48555;BME280;34336;48.270;16.716;2023-03-23T13:19:27;109325.25;;;18.16;43.58
48555;BME280;34336;48.270;16.716;2023-03-23T13:22:01;109325.25;;;18.16;43.11
48555;BME280;34336;48.270;16.716;2023-03-23T13:24:28;109325.25;;;18.16;43.87
48555;BME280;34336;48.270;16.716;2023-03-23T13:26:55;109325.25;;;18.16;42.45
48555;BME280;34336;48.270;16.716;2023-03-23T13:29:23;109325.25;;;18.16;44.70
48555;BME280;34336;48.270;16.716;2023-03-23T13:31:50;109325.25;;;18.16;43.10
48555;BME280;34336;48.270;16.716;2023-03-23T13:34:22;109325.25;;;18.16;43.86
48555;BME280;34336;48.270;16.716;2023-03-23T13:39:21;109325.25;;;18.16;42.96
48555;BME280;34336;48.270;16.716;2023-03-23T13:44:43;109325.25;;;18.16;41.26
48555;BME280;34336;48.270;16.716;2023-03-23T13:47:35;109325.25;;;18.16;42.48
48555;BME280;34336;48.270;16.716;2023-03-23T13:50:00;109325.25;;;18.16;42.03
48555;BME280;34336;48.270;16.716;2023-03-23T13:58:09;109325.25;;;18.16;42.39
48555;BME280;34336;48.270;16.716;2023-03-23T14:00:48;109325.25;;;18.16;41.70
48555;BME280;34336;48.270;16.716;2023-03-23T14:05:50;109325.25;;;18.16;42.60
48555;BME280;34336;48.270;16.716;2023-03-23T14:11:01;109325.25;;;18.16;41.65
48555;BME280;34336;48.270;16.716;2023-03-23T14:13:38;109325.25;;;18.16;42.14
48555;BME280;34336;48.270;16.716;2023-03-23T14:16:12;109325.25;;;18.16;42.04
48555;BME280;34336;48.270;16.716;2023-03-23T14:18:39;109325.25;;;18.16;41.58
48555;BME280;34336;48.270;16.716;2023-03-23T14:21:06;109325.25;;;18.16;42.78
48555;BME280;34336;48.270;16.716;2023-03-23T14:23:38;109325.25;;;18.16;41.90
48555;BME280;34336;48.270;16.716;2023-03-23T14:26:09;109325.25;;;18.16;42.98
48555;BME280;34336;48.270;16.716;2023-03-23T14:28:39;109325.25;;;18.16;42.94
48555;BME280;34336;48.270;16.716;2023-03-23T14:31:05;109325.25;;;18.16;43.18
48555;BME280;34336;48.270;16.716;2023-03-23T14:33:39;109325.25;;;18.16;41.52
48555;BME280;34336;48.270;16.716;2023-03-23T14:36:06;109325.25;;;18.16;41.82
48555;BME280;34336;48.270;16.716;2023-03-23T14:38:32;109325.25;;;18.16;41.60
48555;BME280;34336;48.270;16.716;2023-03-23T14:41:04;109325.25;;;18.16;42.72
48555;BME280;34336;48.270;16.716;2023-03-23T14:43:31;109325.25;;;18.16;41.61
48555;BME280;34336;48.270;16.716;2023-03-23T14:46:00;109325.25;;;18.16;41.70
48555;BME280;34336;48.270;16.716;2023-03-23T14:48:26;109325.25;;;18.16;41.44
48555;BME280;34336;48.270;16.716;2023-03-23T14:50:59;109325.25;;;18.16;41.96
48555;BME280;34336;48.270;16.716;2023-03-23T14:55:55;109325.25;;;18.16;42.28
48555;BME280;34336;48.270;16.716;2023-03-23T14:58:24;109325.25;;;18.16;41.20
48555;BME280;34336;48.270;16.716;2023-03-23T15:00:55;109325.25;;;18.16;41.29
48555;BME280;34336;48.270;16.716;2023-03-23T15:03:22;109325.25;;;18.16;41.95
48555;BME280;34336;48.270;16.716;2023-03-23T15:05:54;109325.25;;;18.16;42.20
48555;BME280;34336;48.270;16.716;2023-03-23T15:08:25;109325.25;;;18.16;42.32
48555;BME280;34336;48.270;16.716;2023-03-23T15:11:20;109325.25;;;18.16;42.11